Time;durP1;ratioP1;P1;durP2;ratioP2;P2;SDS_P1;SDS_P2;PMS_P1;PMS_P2;Temp;Humidity;BMP_temperature;BMP_pressure;BME280_temperature;BME280_humidity;BME280_pressure;Samples;Min_cycle;Max_cycle;Signal;HPM_P1;HPM_P2
2022/06/10 00:00:34;;;;;;;5.80;4.15;;;;;;;;;;10354398;28;20036;-73
2022/06/10 00:05:36;;;;;;;12.60;5.50;;;;;;;;;;10342688;28;20030;-71
2022/06/10 00:10:37;;;;;;;5.68;4.55;;;;;;;;;;10357343;28;20038;-71
2022/06/10 00:15:37;;;;;;;6.97;4.35;;;;;;;;;;10359047;28;20060;-72
2022/06/10 00:20:38;;;;;;;7.65;5.43;;;;;;;;;;10342217;28;20361;-72
2022/06/10 00:25:38;;;;;;;7.22;4.63;;;;;;;;;;10342651;28;20494;-70
2022/06/10 00:30:39;;;;;;;6.53;4.75;;;;;;;;;;10365434;28;20048;-71
2022/06/10 00:35:40;;;;;;;7.00;5.07;;;;;;;;;;10350398;28;20595;-77
2022/06/10 00:40:43;;;;;;;7.47;4.28;;;;;;;;;;10349850;28;20030;-72
2022/06/10 00:45:48;;;;;;;10.05;5.35;;;;;;;;;;10366132;28;20038;-72
2022/06/10 00:50:49;;;;;;;8.35;5.55;;;;;;;;;;10388440;28;20525;-72
2022/06/10 00:55:51;;;;;;;8.30;5.22;;;;;;;;;;10406865;28;20036;-73
2022/06/10 01:00:51;;;;;;;7.47;4.43;;;;;;;;;;10403122;28;20017;-73
2022/06/10 01:05:52;;;;;;;6.83;4.57;;;;;;;;;;10406859;28;20457;-73
2022/06/10 01:10:55;;;;;;;8.15;5.45;;;;;;;;;;10389865;28;20859;-73
2022/06/10 01:16:01;;;;;;;8.27;5.20;;;;;;;;;;10388485;28;20052;-72
2022/06/10 01:21:11;;;;;;;10.60;5.88;;;;;;;;;;10388752;28;20147;-71
2022/06/10 01:27:48;;;;;;;8.98;5.78;;;;;;;;;;10388065;28;20029;-70
2022/06/10 01:32:14;;;;;;;10.57;5.95;;;;;;;;;;10380329;28;20021;-72
2022/06/10 01:37:18;;;;;;;13.32;5.68;;;;;;;;;;10387781;28;20606;-73
2022/06/10 01:42:30;;;;;;;8.25;5.90;;;;;;;;;;10370820;28;20017;-71
2022/06/10 01:47:31;;;;;;;8.82;5.75;;;;;;;;;;10387666;28;20241;-75
2022/06/10 01:52:33;;;;;;;8.90;6.17;;;;;;;;;;10405137;28;20013;-72
2022/06/10 01:57:36;;;;;;;11.82;6.68;;;;;;;;;;10370927;28;20275;-72
2022/06/10 02:02:38;;;;;;;9.82;6.97;;;;;;;;;;10387160;28;20048;-72
2022/06/10 02:07:48;;;;;;;10.90;7.18;;;;;;;;;;10405274;28;20026;-75
2022/06/10 02:12:50;;;;;;;14.55;6.32;;;;;;;;;;10405588;28;20024;-71
2022/06/10 02:17:54;;;;;;;11.80;6.68;;;;;;;;;;10388401;28;20065;-72
2022/06/10 02:22:55;;;;;;;10.38;6.32;;;;;;;;;;10387695;28;20394;-72
2022/06/10 02:28:01;;;;;;;19.25;6.97;;;;;;;;;;10371761;28;20399;-73
2022/06/10 02:33:02;;;;;;;10.40;6.28;;;;;;;;;;10386758;28;20538;-73
2022/06/10 02:38:12;;;;;;;9.45;6.35;;;;;;;;;;10385793;28;20079;-74
2022/06/10 02:43:31;;;;;;;12.07;6.97;;;;;;;;;;10385275;28;20036;-70
2022/06/10 02:48:31;;;;;;;9.52;6.60;;;;;;;;;;10385859;28;20045;-70
2022/06/10 02:53:31;;;;;;;16.17;7.25;;;;;;;;;;10385895;28;20105;-72
2022/06/10 03:03:59;;;;;;;11.68;6.88;;;;;;;;;;10404732;28;20108;-74
2022/06/10 03:09:06;;;;;;;11.40;7.43;;;;;;;;;;10386365;28;20021;-72
2022/06/10 03:14:19;;;;;;;12.13;6.85;;;;;;;;;;10386059;28;20049;-72
2022/06/10 03:19:37;;;;;;;9.15;6.90;;;;;;;;;;10385970;28;20484;-70
2022/06/10 03:24:38;;;;;;;10.65;7.55;;;;;;;;;;10385761;28;20021;-75
2022/06/10 03:29:41;;;;;;;12.63;7.10;;;;;;;;;;10403316;28;20404;-70
2022/06/10 03:34:44;;;;;;;14.82;7.68;;;;;;;;;;10385972;28;20013;-73
2022/06/10 03:39:55;;;;;;;12.27;7.07;;;;;;;;;;10385728;28;20034;-71
2022/06/10 03:44:56;;;;;;;11.40;6.45;;;;;;;;;;10385272;28;20396;-72
2022/06/10 03:49:58;;;;;;;10.38;6.47;;;;;;;;;;10385061;28;20037;-72
2022/06/10 03:54:59;;;;;;;12.30;6.32;;;;;;;;;;10402131;28;20017;-73
2022/06/10 03:59:59;;;;;;;9.37;6.07;;;;;;;;;;10385490;28;20025;-73
2022/06/10 04:04:59;;;;;;;7.47;5.20;;;;;;;;;;10390158;28;20411;-71
2022/06/10 04:09:59;;;;;;;9.85;5.47;;;;;;;;;;10392868;28;20021;-71
2022/06/10 04:14:59;;;;;;;11.05;4.35;;;;;;;;;;10392205;28;20057;-71
2022/06/10 04:20:00;;;;;;;11.65;7.45;;;;;;;;;;10404302;28;20037;-75
2022/06/10 04:25:00;;;;;;;7.78;5.35;;;;;;;;;;10391079;28;20486;-72
2022/06/10 04:30:01;;;;;;;15.00;6.50;;;;;;;;;;10390442;28;20014;-73
2022/06/10 04:35:01;;;;;;;11.60;5.23;;;;;;;;;;10391233;28;20021;-75
2022/06/10 04:40:02;;;;;;;7.63;5.87;;;;;;;;;;10390424;28;20329;-72
2022/06/10 04:45:02;;;;;;;10.18;5.97;;;;;;;;;;10407684;28;20028;-73
2022/06/10 04:50:03;;;;;;;13.63;8.00;;;;;;;;;;10390379;28;20475;-73
2022/06/10 04:55:05;;;;;;;12.32;8.10;;;;;;;;;;10406632;28;20272;-74
2022/06/10 05:00:09;;;;;;;11.27;6.82;;;;;;;;;;10406655;28;20045;-72
2022/06/10 05:05:09;;;;;;;9.77;5.75;;;;;;;;;;10387154;28;20022;-71
2022/06/10 05:10:11;;;;;;;15.52;8.75;;;;;;;;;;10380488;28;20025;-77
2022/06/10 05:15:12;;;;;;;11.10;6.55;;;;;;;;;;10384026;28;20518;-72
2022/06/10 05:20:16;;;;;;;12.38;6.90;;;;;;;;;;10371914;28;20087;-70
2022/06/10 05:25:16;;;;;;;7.38;5.35;;;;;;;;;;10387083;28;20052;-71
2022/06/10 05:30:18;;;;;;;17.52;7.50;;;;;;;;;;10384707;28;20024;-74
2022/06/10 05:35:19;;;;;;;8.27;5.57;;;;;;;;;;10386078;28;20017;-73
2022/06/10 05:40:21;;;;;;;8.10;5.60;;;;;;;;;;10405787;28;20503;-71
2022/06/10 05:45:21;;;;;;;8.70;5.82;;;;;;;;;;10371609;28;20041;-72
2022/06/10 05:50:24;;;;;;;14.85;6.97;;;;;;;;;;10378564;28;20030;-74
2022/06/10 05:55:24;;;;;;;11.63;6.93;;;;;;;;;;10374238;28;20105;-73
2022/06/10 06:00:26;;;;;;;13.45;8.90;;;;;;;;;;10394457;28;20029;-75
2022/06/10 06:05:28;;;;;;;14.82;9.63;;;;;;;;;;10373118;28;20025;-74
2022/06/10 06:10:28;;;;;;;13.50;9.45;;;;;;;;;;10378794;28;20128;-71
2022/06/10 06:15:29;;;;;;;17.92;10.68;;;;;;;;;;10385522;28;20434;-72
2022/06/10 06:20:29;;;;;;;14.18;9.32;;;;;;;;;;10376286;28;20064;-74
2022/06/10 06:25:30;;;;;;;14.85;9.40;;;;;;;;;;10385783;28;20059;-72
2022/06/10 06:30:32;;;;;;;20.67;10.70;;;;;;;;;;10351102;28;20027;-73
2022/06/10 06:35:33;;;;;;;20.60;10.68;;;;;;;;;;10370108;28;20119;-75
2022/06/10 06:40:33;;;;;;;19.33;9.30;;;;;;;;;;10360540;28;20025;-71
2022/06/10 06:45:34;;;;;;;13.45;7.90;;;;;;;;;;10392070;28;20029;-70
2022/06/10 06:50:36;;;;;;;15.15;8.20;;;;;;;;;;10378384;28;20033;-70
2022/06/10 06:55:37;;;;;;;16.15;9.75;;;;;;;;;;10394465;28;20487;-72
2022/06/10 07:00:38;;;;;;;12.05;8.15;;;;;;;;;;10381370;28;20029;-74
2022/06/10 07:05:38;;;;;;;11.38;7.63;;;;;;;;;;10370660;28;20466;-72
2022/06/10 07:10:38;;;;;;;11.73;8.27;;;;;;;;;;10385938;28;20112;-71
2022/06/10 07:15:42;;;;;;;12.52;8.63;;;;;;;;;;10385499;28;20061;-72
2022/06/10 07:20:42;;;;;;;14.40;9.60;;;;;;;;;;10377676;28;20030;-78
2022/06/10 07:25:43;;;;;;;15.02;9.18;;;;;;;;;;10372897;28;20021;-73
2022/06/10 07:30:43;;;;;;;14.97;9.53;;;;;;;;;;10386930;28;20033;-73
2022/06/10 07:35:43;;;;;;;15.18;8.05;;;;;;;;;;10363849;28;20030;-75
2022/06/10 07:46:04;;;;;;;14.73;8.68;;;;;;;;;;10391445;28;20030;-76
2022/06/10 07:51:05;;;;;;;18.13;8.60;;;;;;;;;;10351480;28;20484;-73
2022/06/10 07:56:05;;;;;;;16.48;9.20;;;;;;;;;;10359442;28;20026;-74
2022/06/10 08:01:05;;;;;;;12.95;7.60;;;;;;;;;;10395585;28;20028;-76
2022/06/10 08:06:06;;;;;;;14.98;7.97;;;;;;;;;;10400847;28;20024;-75
2022/06/10 08:11:06;;;;;;;12.05;6.07;;;;;;;;;;10401852;28;20021;-74
2022/06/10 08:16:06;;;;;;;13.30;6.63;;;;;;;;;;10496937;22;20115;-74
2022/06/10 08:26:26;;;;;;;8.85;5.70;;;;;;;;;;10443273;28;20029;-74
2022/06/10 08:31:26;;;;;;;5.28;4.55;;;;;;;;;;10424521;28;20477;-71
2022/06/10 08:36:27;;;;;;;4.53;3.70;;;;;;;;;;10424110;28;20040;-73
2022/06/10 08:41:46;;;;;;;8.82;4.13;;;;;;;;;;10424372;28;20151;-72
2022/06/10 08:46:55;;;;;;;10.45;4.38;;;;;;;;;;10425145;28;20028;-72
2022/06/10 08:51:55;;;;;;;14.35;5.22;;;;;;;;;;10448033;28;20032;-76
2022/06/10 08:56:57;;;;;;;9.23;5.68;;;;;;;;;;10431506;28;20028;-77
2022/06/10 09:02:05;;;;;;;5.80;4.30;;;;;;;;;;10418614;28;20029;-74
2022/06/10 09:07:29;;;;;;;8.18;4.63;;;;;;;;;;10391088;28;20025;-73
2022/06/10 09:12:35;;;;;;;8.15;5.47;;;;;;;;;;10379540;28;20059;-69
2022/06/10 09:17:50;;;;;;;4.80;4.20;;;;;;;;;;10389430;28;20136;-70
2022/06/10 09:23:02;;;;;;;6.90;5.00;;;;;;;;;;10407445;28;20029;-74
2022/06/10 09:28:03;;;;;;;7.22;5.25;;;;;;;;;;10345550;28;20034;-76
2022/06/10 09:33:10;;;;;;;11.87;5.90;;;;;;;;;;10361572;28;20029;-75
2022/06/10 09:38:17;;;;;;;16.73;8.02;;;;;;;;;;10363910;28;20138;-71
2022/06/10 09:43:33;;;;;;;11.23;6.30;;;;;;;;;;10365234;28;20038;-75
2022/06/10 09:48:36;;;;;;;11.73;7.70;;;;;;;;;;10371516;28;20026;-77
2022/06/10 09:53:39;;;;;;;10.35;7.13;;;;;;;;;;10388092;28;20026;-70
2022/06/10 09:58:49;;;;;;;10.15;6.68;;;;;;;;;;10385720;28;20116;-73
2022/06/10 10:03:53;;;;;;;9.23;6.20;;;;;;;;;;10352848;28;20033;-68
2022/06/10 10:08:53;;;;;;;11.85;6.60;;;;;;;;;;10384865;28;20045;-74
2022/06/10 10:14:06;;;;;;;18.98;9.77;;;;;;;;;;10374181;28;20036;-72
2022/06/10 10:19:25;;;;;;;13.77;7.57;;;;;;;;;;10360963;28;20414;-72
2022/06/10 10:24:26;;;;;;;14.88;7.93;;;;;;;;;;10358852;28;20083;-73
2022/06/10 10:29:29;;;;;;;18.38;7.40;;;;;;;;;;10349738;28;20064;-76
2022/06/10 10:34:32;;;;;;;21.02;9.52;;;;;;;;;;10345775;28;20508;-75
2022/06/10 10:39:32;;;;;;;18.17;10.00;;;;;;;;;;10345360;28;20029;-74
2022/06/10 10:44:38;;;;;;;15.15;8.95;;;;;;;;;;10353481;28;20538;-76
2022/06/10 10:49:40;;;;;;;20.15;9.98;;;;;;;;;;10349660;28;20448;-77
2022/06/10 10:54:42;;;;;;;19.67;11.50;;;;;;;;;;10362014;28;20022;-74
2022/06/10 10:59:43;;;;;;;18.83;10.15;;;;;;;;;;10361853;28;20585;-69
2022/06/10 11:04:44;;;;;;;16.95;9.70;;;;;;;;;;10362815;28;20030;-70
2022/06/10 11:09:46;;;;;;;13.82;8.50;;;;;;;;;;10316229;28;20108;-69
2022/06/10 11:14:48;;;;;;;14.73;8.30;;;;;;;;;;10343968;28;20104;-73
2022/06/10 11:19:58;;;;;;;14.02;9.30;;;;;;;;;;10384589;28;20131;-74
2022/06/10 11:25:02;;;;;;;15.63;9.63;;;;;;;;;;10385389;28;20017;-73
2022/06/10 11:30:13;;;;;;;14.30;9.23;;;;;;;;;;10384672;28;20029;-72
2022/06/10 11:35:20;;;;;;;15.23;10.00;;;;;;;;;;10339000;28;20381;-76
2022/06/10 11:40:22;;;;;;;14.20;8.60;;;;;;;;;;10344205;28;20026;-74
2022/06/10 11:45:26;;;;;;;10.82;7.60;;;;;;;;;;10361121;28;20076;-69
2022/06/10 11:50:31;;;;;;;12.77;8.57;;;;;;;;;;10375934;28;20029;-74
2022/06/10 11:55:33;;;;;;;12.05;7.53;;;;;;;;;;10383444;28;20013;-72
2022/06/10 12:00:43;;;;;;;11.05;7.55;;;;;;;;;;10382000;28;20100;-78
2022/06/10 12:05:43;;;;;;;10.02;6.43;;;;;;;;;;10384299;28;20044;-73
2022/06/10 12:10:47;;;;;;;10.37;6.03;;;;;;;;;;10384317;28;20028;-71
2022/06/10 12:15:53;;;;;;;10.18;6.03;;;;;;;;;;10341906;28;20125;-76
2022/06/10 12:20:57;;;;;;;8.52;6.15;;;;;;;;;;10360643;28;20038;-75
2022/06/10 12:26:07;;;;;;;10.07;5.22;;;;;;;;;;10347119;28;20104;-73
2022/06/10 12:31:16;;;;;;;9.38;4.80;;;;;;;;;;10367922;28;20105;-74
2022/06/10 12:36:18;;;;;;;8.30;5.97;;;;;;;;;;10350725;28;20511;-73
2022/06/10 12:41:25;;;;;;;8.60;5.50;;;;;;;;;;10350573;28;20026;-74
2022/06/10 12:46:34;;;;;;;6.33;4.97;;;;;;;;;;10350334;28;20025;-77
2022/06/10 12:51:41;;;;;;;8.40;5.70;;;;;;;;;;10350102;28;20166;-72
2022/06/10 12:56:41;;;;;;;10.27;5.88;;;;;;;;;;10367987;28;20022;-74
2022/06/10 13:01:43;;;;;;;8.43;6.22;;;;;;;;;;10349033;28;20040;-74
2022/06/10 13:06:43;;;;;;;8.52;5.47;;;;;;;;;;10348774;28;20507;-72
2022/06/10 13:11:49;;;;;;;14.30;6.00;;;;;;;;;;10349914;28;20022;-73
2022/06/10 13:16:58;;;;;;;11.68;7.07;;;;;;;;;;10359065;28;20439;-72
2022/06/10 13:21:59;;;;;;;13.02;7.28;;;;;;;;;;10389268;28;20056;-70
2022/06/10 13:27:12;;;;;;;10.48;5.75;;;;;;;;;;10389128;28;20435;-76
2022/06/10 13:32:12;;;;;;;10.73;6.63;;;;;;;;;;10388712;28;20021;-75
2022/06/10 13:37:14;;;;;;;8.98;6.13;;;;;;;;;;10406084;28;20399;-72
2022/06/10 13:42:20;;;;;;;13.05;7.28;;;;;;;;;;10377572;28;20034;-71
2022/06/10 13:47:23;;;;;;;10.63;7.10;;;;;;;;;;10384674;28;20032;-76
2022/06/10 13:52:34;;;;;;;9.93;7.07;;;;;;;;;;10391423;28;20022;-69
2022/06/10 13:57:36;;;;;;;11.57;7.15;;;;;;;;;;10387843;28;20017;-74
2022/06/10 14:02:38;;;;;;;8.68;6.40;;;;;;;;;;10396252;28;20507;-74
2022/06/10 14:07:40;;;;;;;10.13;6.30;;;;;;;;;;10369688;28;20026;-71
2022/06/10 14:12:40;;;;;;;13.27;7.30;;;;;;;;;;10375351;28;20037;-75
2022/06/10 14:17:47;;;;;;;10.60;6.72;;;;;;;;;;10388138;28;20049;-72
2022/06/10 14:22:48;;;;;;;11.43;6.65;;;;;;;;;;10378542;28;20328;-74
2022/06/10 14:28:08;;;;;;;11.00;7.87;;;;;;;;;;10366595;28;20029;-74
2022/06/10 14:33:30;;;;;;;11.57;8.45;;;;;;;;;;10360184;28;20029;-73
2022/06/10 14:38:30;;;;;;;16.73;7.32;;;;;;;;;;10369589;28;20480;-75
2022/06/10 14:43:35;;;;;;;11.20;7.50;;;;;;;;;;10395537;28;20017;-73
2022/06/10 14:48:37;;;;;;;16.70;8.98;;;;;;;;;;10388764;28;20033;-75
2022/06/10 14:53:46;;;;;;;10.48;7.68;;;;;;;;;;10365937;28;20048;-71
2022/06/10 14:58:47;;;;;;;11.00;7.68;;;;;;;;;;10375628;28;20014;-74
2022/06/10 15:03:47;;;;;;;12.48;8.57;;;;;;;;;;10367824;28;20022;-73
2022/06/10 15:08:50;;;;;;;14.80;9.10;;;;;;;;;;10357192;28;20021;-71
2022/06/10 15:13:50;;;;;;;13.77;8.70;;;;;;;;;;10355066;28;20025;-73
2022/06/10 15:18:52;;;;;;;12.98;8.48;;;;;;;;;;10361199;28;20092;-72
2022/06/10 15:23:52;;;;;;;14.10;9.80;;;;;;;;;;10346881;28;20017;-74
2022/06/10 15:28:53;;;;;;;15.02;9.45;;;;;;;;;;10371910;28;20014;-74
2022/06/10 15:33:53;;;;;;;16.85;10.68;;;;;;;;;;10366763;28;20033;-72
2022/06/10 15:44:33;;;;;;;18.83;11.43;;;;;;;;;;10364449;28;20033;-77
2022/06/10 15:49:34;;;;;;;17.48;10.70;;;;;;;;;;10361925;28;20040;-70
2022/06/10 16:00:13;;;;;;;17.17;11.57;;;;;;;;;;10401463;28;20112;-72
2022/06/10 16:05:19;;;;;;;17.05;11.18;;;;;;;;;;10361125;28;20018;-75
2022/06/10 16:10:19;;;;;;;21.65;12.18;;;;;;;;;;10367689;28;20033;-70
2022/06/10 16:15:21;;;;;;;19.50;11.48;;;;;;;;;;10357628;28;20035;-77
2022/06/10 16:20:23;;;;;;;14.15;10.45;;;;;;;;;;10380590;28;20108;-74
2022/06/10 16:25:24;;;;;;;17.48;11.55;;;;;;;;;;10372066;28;20087;-74
2022/06/10 16:30:26;;;;;;;12.93;8.60;;;;;;;;;;10357529;28;20037;-75
2022/06/10 16:35:28;;;;;;;15.18;9.38;;;;;;;;;;10370170;28;20345;-74
2022/06/10 16:40:28;;;;;;;14.88;9.18;;;;;;;;;;10380802;28;20538;-75
2022/06/10 16:45:29;;;;;;;10.82;7.85;;;;;;;;;;10378797;28;20045;-73
2022/06/10 16:50:29;;;;;;;12.02;7.78;;;;;;;;;;10375679;28;20140;-73
2022/06/10 16:55:29;;;;;;;11.30;7.60;;;;;;;;;;10376505;28;20020;-75
2022/06/10 17:00:33;;;;;;;13.32;8.13;;;;;;;;;;10379786;28;20036;-70
2022/06/10 17:05:37;;;;;;;16.85;9.02;;;;;;;;;;10376786;28;20513;-70
2022/06/10 17:10:37;;;;;;;13.95;7.93;;;;;;;;;;10374081;28;20176;-71
2022/06/10 17:15:37;;;;;;;13.18;8.90;;;;;;;;;;10361372;28;20550;-74
2022/06/10 17:20:39;;;;;;;13.60;8.47;;;;;;;;;;10394966;28;20518;-69
2022/06/10 17:25:44;;;;;;;16.42;9.77;;;;;;;;;;10377267;28;20030;-73
2022/06/10 17:30:50;;;;;;;16.65;8.88;;;;;;;;;;10365998;28;20037;-73
2022/06/10 17:35:51;;;;;;;17.35;9.50;;;;;;;;;;10392227;28;20053;-75
2022/06/10 17:40:53;;;;;;;14.30;9.13;;;;;;;;;;10408277;28;20068;-69
2022/06/10 17:45:53;;;;;;;20.55;9.65;;;;;;;;;;10380899;28;20076;-74
2022/06/10 17:50:53;;;;;;;14.73;9.50;;;;;;;;;;10379997;28;20483;-71
2022/06/10 17:55:53;;;;;;;20.15;10.32;;;;;;;;;;10379618;28;20021;-74
2022/06/10 18:00:54;;;;;;;16.67;10.63;;;;;;;;;;10362491;28;20030;-76
2022/06/10 18:05:57;;;;;;;17.35;9.90;;;;;;;;;;10376782;28;20057;-75
2022/06/10 18:11:00;;;;;;;16.13;9.48;;;;;;;;;;10372260;28;20022;-76
2022/06/10 18:16:02;;;;;;;15.18;8.70;;;;;;;;;;10367463;28;20038;-77
2022/06/10 18:21:03;;;;;;;15.75;8.02;;;;;;;;;;10373020;28;20033;-74
2022/06/10 18:26:21;;;;;;;11.25;7.80;;;;;;;;;;10373512;28;20486;-71
2022/06/10 18:31:26;;;;;;;15.80;8.93;;;;;;;;;;10385952;28;20479;-72
2022/06/10 18:36:26;;;;;;;13.35;8.02;;;;;;;;;;10386113;28;20033;-74
2022/06/10 18:41:26;;;;;;;12.52;8.50;;;;;;;;;;10365902;28;20018;-72
2022/06/10 18:46:26;;;;;;;14.70;8.90;;;;;;;;;;10366380;28;20623;-72
2022/06/10 18:51:31;;;;;;;19.37;8.00;;;;;;;;;;10373674;28;20022;-76
2022/06/10 18:56:34;;;;;;;15.77;8.95;;;;;;;;;;10384498;28;20304;-70
2022/06/10 19:01:36;;;;;;;18.23;8.35;;;;;;;;;;10378707;28;20144;-74
2022/06/10 19:06:36;;;;;;;15.02;9.15;;;;;;;;;;10343912;28;20033;-75
2022/06/10 19:11:37;;;;;;;11.88;7.53;;;;;;;;;;10356745;28;20029;-70
2022/06/10 19:16:38;;;;;;;15.90;9.00;;;;;;;;;;10354221;28;20046;-69
2022/06/10 19:21:43;;;;;;;16.67;8.85;;;;;;;;;;10360274;28;20033;-70
2022/06/10 19:26:43;;;;;;;17.80;9.07;;;;;;;;;;10360958;28;20025;-72
2022/06/10 19:31:58;;;;;;;14.48;8.77;;;;;;;;;;10359663;28;20021;-69
2022/06/10 19:37:00;;;;;;;13.68;8.15;;;;;;;;;;10360454;28;20021;-72
2022/06/10 19:42:00;;;;;;;13.43;8.93;;;;;;;;;;10360623;28;20025;-74
2022/06/10 19:47:21;;;;;;;12.90;8.95;;;;;;;;;;10381503;28;20067;-72
2022/06/10 19:52:23;;;;;;;14.48;8.15;;;;;;;;;;10361460;28;20480;-76
2022/06/10 19:57:30;;;;;;;13.75;8.45;;;;;;;;;;10383827;28;20097;-71
2022/06/10 20:02:33;;;;;;;11.88;6.90;;;;;;;;;;10384425;28;20105;-75
2022/06/10 20:07:34;;;;;;;13.52;8.10;;;;;;;;;;10376546;28;20440;-75
2022/06/10 20:12:34;;;;;;;16.50;8.48;;;;;;;;;;10374374;28;20117;-71
2022/06/10 20:17:36;;;;;;;11.52;7.68;;;;;;;;;;10376061;28;20049;-74
2022/06/10 20:22:36;;;;;;;12.57;7.78;;;;;;;;;;10368670;28;20539;-71
2022/06/10 20:27:37;;;;;;;17.17;9.30;;;;;;;;;;10366909;28;20029;-70
2022/06/10 20:32:37;;;;;;;18.48;11.45;;;;;;;;;;10367017;28;20026;-70
2022/06/10 20:37:37;;;;;;;20.17;11.25;;;;;;;;;;10374736;28;20057;-71
2022/06/10 20:42:38;;;;;;;19.33;10.65;;;;;;;;;;10378294;28;20121;-74
2022/06/10 20:47:39;;;;;;;15.15;9.65;;;;;;;;;;10371563;28;20029;-70
2022/06/10 20:52:40;;;;;;;20.20;10.27;;;;;;;;;;10389929;28;20040;-70
2022/06/10 20:57:41;;;;;;;19.83;11.65;;;;;;;;;;10380595;28;20025;-72
2022/06/10 21:02:41;;;;;;;21.73;13.15;;;;;;;;;;10379764;28;20021;-71
2022/06/10 21:07:47;;;;;;;25.17;13.33;;;;;;;;;;10382065;28;20025;-68
2022/06/10 21:12:48;;;;;;;22.83;12.88;;;;;;;;;;10397319;28;20099;-75
2022/06/10 21:17:50;;;;;;;21.30;12.80;;;;;;;;;;10382996;28;20123;-76
2022/06/10 21:22:50;;;;;;;22.17;13.10;;;;;;;;;;10381071;28;20034;-69
2022/06/10 21:27:51;;;;;;;31.42;15.40;;;;;;;;;;10376723;28;20499;-68
2022/06/10 21:32:53;;;;;;;23.50;13.45;;;;;;;;;;10378692;28;20033;-68
2022/06/10 21:37:54;;;;;;;33.13;15.45;;;;;;;;;;10380320;28;20120;-68
2022/06/10 21:48:18;;;;;;;27.40;14.60;;;;;;;;;;10397443;28;20068;-72
2022/06/10 21:53:27;;;;;;;27.45;14.93;;;;;;;;;;10364044;28;20700;-70
2022/06/10 21:58:30;;;;;;;31.77;16.45;;;;;;;;;;10363578;28;20091;-74
2022/06/10 22:03:33;;;;;;;31.88;17.05;;;;;;;;;;10382772;28;20026;-73
2022/06/10 22:08:33;;;;;;;33.78;17.40;;;;;;;;;;10383387;28;20060;-74
2022/06/10 22:13:33;;;;;;;37.30;17.83;;;;;;;;;;10367824;28;20033;-73
2022/06/10 22:18:34;;;;;;;37.87;20.27;;;;;;;;;;10389598;28;20054;-71
2022/06/10 22:23:34;;;;;;;37.88;19.98;;;;;;;;;;10388119;28;20040;-70
2022/06/10 22:28:36;;;;;;;45.38;20.40;;;;;;;;;;10386877;28;20033;-69
2022/06/10 22:33:39;;;;;;;43.70;20.90;;;;;;;;;;10388056;28;20039;-70
2022/06/10 22:38:42;;;;;;;45.28;21.08;;;;;;;;;;10389130;28;20036;-70
2022/06/10 22:43:42;;;;;;;40.38;19.63;;;;;;;;;;10372009;28;20029;-74
2022/06/10 22:48:43;;;;;;;54.33;23.15;;;;;;;;;;10372195;28;20033;-69
2022/06/10 22:53:43;;;;;;;49.97;20.88;;;;;;;;;;10370710;28;20140;-72
2022/06/10 22:58:45;;;;;;;48.92;23.45;;;;;;;;;;10388635;28;20033;-71
2022/06/10 23:03:51;;;;;;;52.35;21.27;;;;;;;;;;10370345;28;20022;-70
2022/06/10 23:14:15;;;;;;;51.83;19.88;;;;;;;;;;10390391;28;20467;-71
2022/06/10 23:19:17;;;;;;;34.80;18.23;;;;;;;;;;10367881;28;20042;-74
2022/06/10 23:24:20;;;;;;;38.38;18.55;;;;;;;;;;10380356;28;20033;-71
2022/06/10 23:29:20;;;;;;;37.33;19.88;;;;;;;;;;10382477;28;20091;-71
2022/06/10 23:34:23;;;;;;;35.47;18.97;;;;;;;;;;10370704;28;20017;-69
2022/06/10 23:39:24;;;;;;;37.15;19.35;;;;;;;;;;10368583;28;20108;-70
2022/06/10 23:44:24;;;;;;;36.35;19.13;;;;;;;;;;10385063;28;20018;-73
